createdAt,value
2019-03-25T00:00:37.810Z,6.38
2019-03-25T00:01:37.769Z,6.38
2019-03-25T00:02:37.745Z,6.40
2019-03-25T00:03:37.699Z,6.25
2019-03-25T00:04:37.625Z,6.14
2019-03-25T00:05:37.582Z,6.15
2019-03-25T00:06:37.558Z,6.18
2019-03-25T00:07:37.530Z,6.12
2019-03-25T00:08:37.459Z,6.11
2019-03-25T00:09:37.430Z,6.04
2019-03-25T00:10:37.365Z,5.93
2019-03-25T00:11:37.316Z,5.90
2019-03-25T00:12:37.281Z,5.86
2019-03-25T00:13:37.262Z,5.93
2019-03-25T00:14:37.192Z,5.94
2019-03-25T00:15:37.161Z,5.94
2019-03-25T00:16:37.096Z,5.81
2019-03-25T00:17:37.063Z,5.71
2019-03-25T00:18:37.035Z,5.81
2019-03-25T00:19:36.965Z,5.68
2019-03-25T00:20:36.935Z,5.61
2019-03-25T00:21:36.886Z,5.63
2019-03-25T00:22:36.839Z,5.60
2019-03-25T00:23:36.804Z,5.46
2019-03-25T00:24:38.990Z,5.48
2019-03-25T00:25:36.720Z,5.46
2019-03-25T00:26:36.656Z,5.46
2019-03-25T00:27:36.635Z,5.45
2019-03-25T00:28:36.575Z,5.46
2019-03-25T00:29:36.526Z,5.67
2019-03-25T00:30:36.514Z,5.65
2019-03-25T00:31:36.453Z,5.72
2019-03-25T00:32:36.392Z,5.67
2019-03-25T00:33:36.354Z,5.61
2019-03-25T00:34:36.306Z,5.61
2019-03-25T00:35:36.279Z,5.54
2019-03-25T00:36:36.236Z,5.54
2019-03-25T00:37:36.172Z,5.53
2019-03-25T00:38:36.196Z,5.56
2019-03-25T00:39:36.089Z,5.48
2019-03-25T00:40:36.067Z,5.54
2019-03-25T00:41:35.991Z,5.58
2019-03-25T00:42:35.958Z,5.58
2019-03-25T00:43:35.915Z,5.58
2019-03-25T00:44:35.865Z,5.60
2019-03-25T00:45:35.819Z,5.53
2019-03-25T00:46:35.831Z,5.56
2019-03-25T00:47:35.739Z,5.60
2019-03-25T00:48:35.685Z,5.64
2019-03-25T00:49:35.634Z,5.64
2019-03-25T00:50:35.599Z,5.67
2019-03-25T00:51:35.549Z,5.64
2019-03-25T00:52:35.540Z,5.63
2019-03-25T00:53:35.468Z,5.67
2019-03-25T00:54:35.406Z,5.67
2019-03-25T00:55:35.398Z,5.58
2019-03-25T00:56:35.327Z,5.53
2019-03-25T00:57:35.316Z,5.54
2019-03-25T00:58:35.242Z,5.57
2019-03-25T00:59:35.193Z,5.61
2019-03-25T01:00:35.136Z,5.57
2019-03-25T01:01:35.125Z,5.64
2019-03-25T01:02:35.098Z,5.64
2019-03-25T01:03:35.039Z,5.49
2019-03-25T01:04:34.969Z,5.56
2019-03-25T01:05:34.936Z,5.53
2019-03-25T01:06:34.896Z,5.64
2019-03-25T01:07:34.870Z,5.72
2019-03-25T01:08:34.816Z,5.64
2019-03-25T01:09:34.762Z,5.71
2019-03-25T01:10:34.722Z,5.72
2019-03-25T01:11:34.683Z,5.75
2019-03-25T01:12:34.625Z,5.75
2019-03-25T01:13:34.615Z,5.82
2019-03-25T01:14:34.556Z,5.78
2019-03-25T01:15:34.482Z,5.86
2019-03-25T01:16:34.449Z,5.81
2019-03-25T01:17:34.477Z,5.78
2019-03-25T01:18:34.358Z,5.78
2019-03-25T01:19:34.357Z,5.86
2019-03-25T01:20:34.269Z,5.79
2019-03-25T01:21:34.234Z,5.81
2019-03-25T01:22:34.185Z,5.83
2019-03-25T01:23:34.141Z,5.79
2019-03-25T01:24:34.083Z,6.01
2019-03-25T01:25:34.078Z,5.90
2019-03-25T01:26:34.002Z,5.96
2019-03-25T01:27:33.966Z,5.90
2019-03-25T01:28:33.923Z,5.96
2019-03-25T01:29:33.865Z,5.99
2019-03-25T01:30:33.850Z,5.96
2019-03-25T01:31:33.799Z,5.89
2019-03-25T01:32:33.739Z,5.90
2019-03-25T01:33:33.717Z,5.86
2019-03-25T01:34:33.654Z,5.85
2019-03-25T01:35:33.650Z,5.86
2019-03-25T01:36:33.563Z,5.93
2019-03-25T01:37:33.516Z,5.94
2019-03-25T01:38:33.471Z,5.93
2019-03-25T01:39:33.431Z,5.96
2019-03-25T01:40:33.466Z,5.93
2019-03-25T01:41:33.412Z,6.04
2019-03-25T01:42:33.301Z,6.11
2019-03-25T01:43:33.263Z,6.00
2019-03-25T01:44:33.202Z,6.08
2019-03-25T01:45:33.167Z,6.03
2019-03-25T01:46:33.145Z,6.12
2019-03-25T01:47:33.108Z,6.17
2019-03-25T01:48:33.028Z,6.15
2019-03-25T01:49:33.013Z,6.21
2019-03-25T01:50:32.957Z,6.25
2019-03-25T01:51:32.894Z,6.25
2019-03-25T01:52:32.884Z,6.30
2019-03-25T01:53:32.852Z,6.38
2019-03-25T01:54:32.759Z,6.27
2019-03-25T01:55:32.710Z,6.28
2019-03-25T01:56:32.675Z,6.37
2019-03-25T01:57:32.660Z,6.38
2019-03-25T01:58:32.612Z,6.43
2019-03-25T01:59:32.534Z,6.44
2019-03-25T02:00:32.503Z,6.41
2019-03-25T02:01:32.479Z,6.38
2019-03-25T02:02:32.418Z,6.54
2019-03-25T02:03:32.404Z,6.41
2019-03-25T02:04:32.328Z,6.48
2019-03-25T02:05:32.321Z,6.44
2019-03-25T02:06:32.264Z,6.49
2019-03-25T02:07:32.196Z,6.55
2019-03-25T02:08:32.146Z,6.44
2019-03-25T02:09:32.136Z,6.64
2019-03-25T02:10:32.064Z,6.58
2019-03-25T02:11:32.055Z,6.58
2019-03-25T02:12:31.971Z,6.67
2019-03-25T02:13:31.936Z,6.71
2019-03-25T02:14:31.883Z,6.74
2019-03-25T02:15:31.871Z,6.66
2019-03-25T02:16:31.810Z,6.70
2019-03-25T02:17:31.771Z,6.73
2019-03-25T02:18:31.724Z,6.85
2019-03-25T02:19:31.666Z,6.81
2019-03-25T02:20:31.625Z,6.81
2019-03-25T02:21:31.589Z,6.84
2019-03-25T02:22:31.600Z,6.89
2019-03-25T02:23:31.495Z,6.89
2019-03-25T02:24:31.461Z,6.79
2019-03-25T02:25:31.389Z,6.91
2019-03-25T02:26:31.372Z,6.88
2019-03-25T02:27:31.334Z,6.91
2019-03-25T02:28:31.266Z,6.95
2019-03-25T02:29:31.233Z,6.97
2019-03-25T02:30:31.176Z,6.99
2019-03-25T02:31:31.124Z,6.88
2019-03-25T02:32:31.120Z,6.97
2019-03-25T02:33:31.071Z,6.99
2019-03-25T02:34:31.010Z,7.05
2019-03-25T02:35:30.966Z,6.95
2019-03-25T02:36:30.922Z,6.99
2019-03-25T02:37:30.942Z,7.03
2019-03-25T02:38:30.850Z,7.03
2019-03-25T02:39:30.801Z,6.99
2019-03-25T02:40:30.752Z,7.05
2019-03-25T02:41:30.707Z,7.05
2019-03-25T02:42:30.661Z,6.98
2019-03-25T02:43:30.653Z,6.98
2019-03-25T02:44:30.566Z,6.95
2019-03-25T02:45:30.533Z,6.97
2019-03-25T02:46:30.476Z,7.02
2019-03-25T02:47:30.434Z,7.10
2019-03-25T02:48:30.409Z,7.12
2019-03-25T02:49:30.373Z,7.12
2019-03-25T02:50:30.296Z,7.10
2019-03-25T02:51:30.256Z,7.10
2019-03-25T02:52:30.229Z,7.10
2019-03-25T02:53:30.173Z,7.10
2019-03-25T02:54:30.154Z,7.05
2019-03-25T02:55:41.638Z,7.10
2019-03-25T02:56:30.032Z,7.10
2019-03-25T02:57:30.031Z,7.07
2019-03-25T02:58:29.957Z,7.13
2019-03-25T02:59:29.910Z,7.03
2019-03-25T03:00:29.925Z,7.09
2019-03-25T03:01:29.834Z,7.07
2019-03-25T03:02:29.774Z,7.12
2019-03-25T03:03:29.733Z,7.05
2019-03-25T03:04:29.693Z,7.09
2019-03-25T03:05:29.670Z,7.09
2019-03-25T03:06:29.633Z,7.13
2019-03-25T03:07:29.581Z,7.20
2019-03-25T03:08:29.521Z,7.23
2019-03-25T03:09:29.468Z,7.13
2019-03-25T03:10:29.417Z,7.24
2019-03-25T03:11:29.423Z,7.30
2019-03-25T03:12:29.336Z,7.30
2019-03-25T03:13:29.314Z,7.28
2019-03-25T03:14:29.262Z,7.31
2019-03-25T03:15:29.215Z,7.32
2019-03-25T03:16:29.164Z,7.27
2019-03-25T03:17:29.150Z,7.25
2019-03-25T03:18:29.078Z,7.25
2019-03-25T03:19:29.041Z,7.31
2019-03-25T03:20:28.993Z,7.30
2019-03-25T03:21:28.983Z,7.39
2019-03-25T03:22:28.904Z,7.32
2019-03-25T03:23:28.857Z,7.45
2019-03-25T03:24:28.819Z,7.42
2019-03-25T03:25:28.786Z,7.39
2019-03-25T03:26:28.746Z,7.39
2019-03-25T03:27:30.095Z,7.32
2019-03-25T03:28:28.637Z,7.42
2019-03-25T03:29:28.610Z,7.43
2019-03-25T03:30:28.574Z,7.40
2019-03-25T03:31:28.527Z,7.46
2019-03-25T03:32:28.506Z,7.39
2019-03-25T03:33:28.461Z,7.48
2019-03-25T03:34:28.521Z,7.43
2019-03-25T03:35:28.397Z,7.42
2019-03-25T03:36:28.325Z,7.45
2019-03-25T03:37:28.320Z,7.39
2019-03-25T03:38:28.265Z,7.43
2019-03-25T03:39:28.184Z,7.43
2019-03-25T03:40:28.155Z,7.43
2019-03-25T03:41:28.114Z,7.43
2019-03-25T03:42:28.051Z,7.39
2019-03-25T03:43:28.018Z,7.40
2019-03-25T03:44:27.982Z,7.39
2019-03-25T03:45:27.899Z,7.45
2019-03-25T03:46:27.890Z,7.39
2019-03-25T03:47:27.823Z,7.40
2019-03-25T03:48:27.809Z,7.48
2019-03-25T03:49:27.732Z,7.42
2019-03-25T03:50:27.713Z,7.40
2019-03-25T03:51:27.649Z,7.40
2019-03-25T03:52:27.618Z,7.49
2019-03-25T03:53:27.563Z,7.42
2019-03-25T03:54:27.544Z,7.40
2019-03-25T03:55:27.470Z,7.53
2019-03-25T03:56:27.453Z,7.40
2019-03-25T03:57:27.407Z,7.49
2019-03-25T03:58:27.362Z,7.52
2019-03-25T03:59:27.328Z,7.53
2019-03-25T04:00:27.275Z,7.50
2019-03-25T04:01:27.195Z,7.60
2019-03-25T04:02:27.176Z,7.61
2019-03-25T04:03:27.122Z,7.61
2019-03-25T04:04:27.095Z,7.53
2019-03-25T04:05:27.061Z,7.50
2019-03-25T04:06:26.988Z,7.67
2019-03-25T04:07:27.000Z,7.58
2019-03-25T04:08:26.922Z,7.57
2019-03-25T04:09:26.904Z,7.60
2019-03-25T04:10:26.824Z,7.68
2019-03-25T04:11:26.777Z,7.63
2019-03-25T04:12:26.739Z,7.64
2019-03-25T04:13:26.741Z,7.57
2019-03-25T04:14:26.686Z,7.67
2019-03-25T04:15:26.624Z,7.68
2019-03-25T04:16:26.578Z,7.67
2019-03-25T04:17:26.512Z,7.63
2019-03-25T04:18:26.496Z,7.68
2019-03-25T04:19:26.437Z,7.64
2019-03-25T04:20:26.407Z,7.68
2019-03-25T04:21:26.365Z,7.67
2019-03-25T04:22:26.297Z,7.67
2019-03-25T04:23:26.263Z,7.61
2019-03-25T04:24:26.205Z,7.71
2019-03-25T04:25:26.213Z,7.67
2019-03-25T04:26:28.849Z,7.71
2019-03-25T04:27:26.082Z,7.61
2019-03-25T04:28:26.064Z,7.60
2019-03-25T04:29:25.991Z,7.58
2019-03-25T04:30:26.004Z,7.52
2019-03-25T04:31:25.904Z,7.53
2019-03-25T04:32:25.868Z,7.61
2019-03-25T04:33:25.811Z,7.55
2019-03-25T04:34:25.820Z,7.61
2019-03-25T04:35:25.726Z,7.55
2019-03-25T04:36:25.734Z,7.50
2019-03-25T04:37:25.662Z,7.57
2019-03-25T04:38:25.612Z,7.46
2019-03-25T04:39:25.576Z,7.35
2019-03-25T04:40:25.519Z,7.45
2019-03-25T04:41:25.477Z,7.49
2019-03-25T04:42:25.444Z,7.40
2019-03-25T04:43:25.440Z,7.37
2019-03-25T04:44:25.410Z,7.34
2019-03-25T04:45:25.306Z,7.31
2019-03-25T04:46:25.253Z,7.34
2019-03-25T04:47:25.209Z,7.28
2019-03-25T04:48:25.164Z,7.27
2019-03-25T04:49:25.171Z,7.27
2019-03-25T04:50:25.100Z,7.27
2019-03-25T04:51:25.024Z,7.24
2019-03-25T04:52:24.989Z,7.27
2019-03-25T04:53:24.940Z,7.37
2019-03-25T04:54:24.935Z,7.35
2019-03-25T04:55:24.857Z,7.25
2019-03-25T04:56:24.842Z,7.31
2019-03-25T04:57:24.815Z,7.40
2019-03-25T04:58:24.729Z,7.39
2019-03-25T04:59:24.683Z,7.27
2019-03-25T05:00:24.675Z,7.16
2019-03-25T05:01:24.602Z,7.23
2019-03-25T05:02:24.557Z,7.23
2019-03-25T05:03:24.545Z,7.12
2019-03-25T05:04:24.495Z,7.09
2019-03-25T05:05:24.491Z,7.10
2019-03-25T05:06:24.407Z,7.15
2019-03-25T05:07:24.363Z,7.09
2019-03-25T05:08:24.312Z,7.16
2019-03-25T05:09:33.122Z,7.07
2019-03-25T05:10:24.205Z,7.06
2019-03-25T05:11:30.538Z,7.13
2019-03-25T05:12:24.111Z,7.05
2019-03-25T05:13:24.061Z,7.12
2019-03-25T05:14:24.052Z,7.05
2019-03-25T05:15:23.982Z,7.05
2019-03-25T05:16:23.959Z,6.97
2019-03-25T05:17:23.876Z,6.97
2019-03-25T05:18:23.852Z,7.05
2019-03-25T05:19:23.831Z,6.87
2019-03-25T05:20:23.780Z,6.92
2019-03-25T05:21:23.808Z,6.88
2019-03-25T05:22:23.701Z,6.88
2019-03-25T05:23:23.654Z,6.92
2019-03-25T05:24:23.616Z,6.84
2019-03-25T05:25:23.610Z,6.92
2019-03-25T05:26:23.493Z,6.91
2019-03-25T05:27:23.457Z,6.81
2019-03-25T05:28:23.431Z,6.81
2019-03-25T05:29:23.358Z,6.85
2019-03-25T05:30:23.346Z,6.89
2019-03-25T05:31:23.321Z,6.81
2019-03-25T05:32:23.331Z,6.87
2019-03-25T05:33:23.249Z,6.81
2019-03-25T05:34:23.167Z,6.84
2019-03-25T05:35:23.123Z,6.85
2019-03-25T05:36:23.074Z,6.84
2019-03-25T05:37:23.048Z,6.81
2019-03-25T05:38:23.001Z,6.79
2019-03-25T05:39:22.960Z,6.81
2019-03-25T05:40:22.900Z,6.88
2019-03-25T05:41:22.837Z,6.76
2019-03-25T05:42:22.794Z,6.74
2019-03-25T05:43:22.769Z,6.67
2019-03-25T05:44:22.748Z,6.64
2019-03-25T05:45:22.679Z,6.61
2019-03-25T05:46:22.646Z,6.62
2019-03-25T05:47:22.601Z,6.61
2019-03-25T05:48:22.662Z,6.66
2019-03-25T05:49:22.518Z,6.59
2019-03-25T05:50:22.478Z,6.61
2019-03-25T05:51:22.437Z,6.54
2019-03-25T05:52:22.386Z,6.64
2019-03-25T05:53:22.349Z,6.55
2019-03-25T05:54:22.279Z,6.62
2019-03-25T05:55:22.235Z,6.66
2019-03-25T05:56:22.182Z,6.66
2019-03-25T05:57:22.194Z,6.74
2019-03-25T05:58:22.109Z,6.79
2019-03-25T05:59:22.076Z,6.70
2019-03-25T06:00:21.995Z,6.73
2019-03-25T06:01:21.996Z,6.70
2019-03-25T06:02:21.962Z,6.80
2019-03-25T06:03:21.908Z,6.89
2019-03-25T06:04:21.868Z,6.81
2019-03-25T06:05:21.813Z,6.88
2019-03-25T06:06:21.742Z,6.76
2019-03-25T06:07:21.716Z,6.77
2019-03-25T06:08:21.657Z,6.87
2019-03-25T06:09:21.626Z,6.87
2019-03-25T06:10:21.607Z,6.94
2019-03-25T06:11:21.547Z,6.88
2019-03-25T06:12:21.528Z,6.97
2019-03-25T06:13:21.498Z,7.07
2019-03-25T06:14:21.426Z,7.20
2019-03-25T06:15:21.352Z,7.23
2019-03-25T06:16:21.312Z,7.31
2019-03-25T06:17:21.265Z,7.50
2019-03-25T06:18:21.276Z,7.86
2019-03-25T06:19:21.179Z,8.58
2019-03-25T06:20:21.147Z,9.24
2019-03-25T06:21:21.096Z,10.23
2019-03-25T06:22:21.095Z,10.52
2019-03-25T06:23:21.018Z,10.51
2019-03-25T06:24:20.984Z,10.70
2019-03-25T06:25:20.923Z,10.41
2019-03-25T06:26:20.876Z,9.84
2019-03-25T06:27:20.829Z,9.53
2019-03-25T06:28:20.851Z,9.15
2019-03-25T06:29:20.765Z,8.74
2019-03-25T06:30:20.710Z,8.43
2019-03-25T06:31:20.679Z,8.26
2019-03-25T06:32:20.615Z,8.22
2019-03-25T06:33:20.587Z,7.92
2019-03-25T06:34:20.576Z,7.75
2019-03-25T06:35:20.496Z,7.87
2019-03-25T06:36:20.471Z,7.83
2019-03-25T06:37:20.405Z,7.93
2019-03-25T06:38:20.377Z,7.90
2019-03-25T06:39:20.343Z,7.87
2019-03-25T06:40:20.311Z,7.83
2019-03-25T06:41:20.264Z,7.55
2019-03-25T06:42:20.215Z,7.60
2019-03-25T06:43:20.231Z,7.53
2019-03-25T06:44:20.128Z,7.69
2019-03-25T06:45:20.087Z,7.83
2019-03-25T06:46:22.179Z,8.62
2019-03-25T06:47:19.992Z,10.14
2019-03-25T06:48:19.970Z,10.81
2019-03-25T06:49:20.128Z,10.85
2019-03-25T06:50:19.888Z,10.82
2019-03-25T06:51:19.837Z,10.23
2019-03-25T06:52:19.798Z,9.42
2019-03-25T06:53:19.756Z,9.31
2019-03-25T06:54:19.680Z,9.81
2019-03-25T06:55:19.693Z,10.59
2019-03-25T06:56:19.629Z,11.15
2019-03-25T06:57:25.465Z,11.65
2019-03-25T06:58:19.549Z,11.90
2019-03-25T06:59:19.482Z,11.61
2019-03-25T07:00:19.459Z,11.86
2019-03-25T07:01:19.410Z,11.83
2019-03-25T07:02:19.343Z,11.35
2019-03-25T07:03:19.281Z,11.14
2019-03-25T07:04:19.245Z,10.81
2019-03-25T07:05:19.227Z,10.89
2019-03-25T07:06:19.235Z,10.66
2019-03-25T07:07:19.123Z,10.42
2019-03-25T07:08:19.128Z,10.53
2019-03-25T07:09:19.075Z,10.14
2019-03-25T07:10:19.003Z,9.65
2019-03-25T07:11:18.977Z,9.21
2019-03-25T07:12:18.927Z,9.21
2019-03-25T07:13:18.891Z,9.23
2019-03-25T07:14:18.845Z,9.23
2019-03-25T07:15:18.793Z,8.95
2019-03-25T07:16:18.745Z,8.61
2019-03-25T07:17:18.729Z,8.56
2019-03-25T07:18:18.680Z,8.45
2019-03-25T07:19:18.633Z,8.43
2019-03-25T07:20:18.621Z,8.40
2019-03-25T07:21:20.512Z,8.40
2019-03-25T07:22:18.562Z,8.44
2019-03-25T07:23:18.461Z,8.56
2019-03-25T07:24:18.445Z,8.62
2019-03-25T07:25:18.375Z,8.59
2019-03-25T07:26:18.364Z,8.87
2019-03-25T07:27:18.315Z,8.98
2019-03-25T07:28:18.293Z,9.13
2019-03-25T07:29:18.238Z,9.18
2019-03-25T07:30:18.233Z,9.18
2019-03-25T07:31:18.155Z,9.24
2019-03-25T07:32:18.133Z,9.21
2019-03-25T07:33:18.106Z,9.17
2019-03-25T07:34:18.022Z,9.14
2019-03-25T07:35:18.017Z,9.08
2019-03-25T07:36:17.984Z,9.35
2019-03-25T07:37:17.886Z,9.46
2019-03-25T07:38:17.895Z,9.81
2019-03-25T07:39:17.808Z,9.76
2019-03-25T07:40:17.826Z,9.38
2019-03-25T07:41:17.764Z,9.36
2019-03-25T07:42:17.688Z,9.46
2019-03-25T07:43:17.664Z,9.47
2019-03-25T07:44:17.602Z,10.18
2019-03-25T07:45:17.561Z,10.66
2019-03-25T07:46:17.676Z,11.04
2019-03-25T07:47:17.486Z,10.84
2019-03-25T07:48:17.480Z,11.02
2019-03-25T07:49:17.404Z,11.33
2019-03-25T07:50:17.374Z,12.56
2019-03-25T07:51:17.324Z,12.45
2019-03-25T07:52:17.273Z,12.95
2019-03-25T07:53:17.234Z,13.62
2019-03-25T07:54:17.175Z,13.85
2019-03-25T07:55:17.176Z,13.81
2019-03-25T07:56:17.108Z,13.55
2019-03-25T07:57:17.080Z,13.39
2019-03-25T07:58:17.032Z,12.29
2019-03-25T07:59:19.054Z,11.73
2019-03-25T08:00:16.926Z,11.27
2019-03-25T08:01:16.932Z,11.36
2019-03-25T08:02:16.846Z,11.04
2019-03-25T08:03:16.911Z,10.73
2019-03-25T08:04:16.774Z,10.55
2019-03-25T08:05:16.731Z,10.47
2019-03-25T08:06:16.997Z,10.52
2019-03-25T08:07:16.671Z,10.25
2019-03-25T08:08:16.600Z,10.79
2019-03-25T08:09:16.589Z,11.11
2019-03-25T08:10:16.577Z,11.21
2019-03-25T08:11:16.524Z,11.15
2019-03-25T08:12:16.439Z,11.25
2019-03-25T08:13:16.490Z,12.12
2019-03-25T08:14:16.350Z,12.92
2019-03-25T08:15:16.336Z,13.15
2019-03-25T08:16:16.280Z,12.85
2019-03-25T08:17:16.261Z,12.45
2019-03-25T08:18:16.201Z,12.31
2019-03-25T08:19:16.163Z,12.56
2019-03-25T08:20:16.117Z,12.37
2019-03-25T08:21:16.077Z,11.90
2019-03-25T08:22:16.046Z,11.70
2019-03-25T08:23:16.047Z,11.51
2019-03-25T08:24:15.973Z,11.46
2019-03-25T08:25:15.929Z,11.18
2019-03-25T08:26:15.891Z,10.89
2019-03-25T08:27:15.848Z,10.76
2019-03-25T08:28:15.807Z,10.47
2019-03-25T08:29:15.788Z,10.14
2019-03-25T08:30:15.746Z,10.01
2019-03-25T08:31:15.766Z,9.68
2019-03-25T08:32:15.651Z,9.60
2019-03-25T08:33:15.642Z,9.60
2019-03-25T08:34:15.569Z,9.71
2019-03-25T08:35:15.532Z,9.64
2019-03-25T08:36:15.501Z,9.35
2019-03-25T08:37:15.457Z,9.33
2019-03-25T08:38:15.407Z,9.18
2019-03-25T08:39:15.387Z,9.24
2019-03-25T08:40:15.327Z,9.29
2019-03-25T08:41:15.367Z,9.20
2019-03-25T08:42:15.337Z,9.15
2019-03-25T08:43:15.209Z,9.15
2019-03-25T08:44:15.193Z,9.17
2019-03-25T08:45:15.125Z,9.20
2019-03-25T08:46:15.105Z,9.08
2019-03-25T08:47:15.037Z,9.08
2019-03-25T08:48:15.000Z,8.99
2019-03-25T08:49:14.990Z,8.95
2019-03-25T08:50:14.991Z,8.89
2019-03-25T08:51:14.912Z,8.84
2019-03-25T08:52:14.832Z,8.65
2019-03-25T08:53:14.789Z,8.77
2019-03-25T08:54:14.846Z,8.89
2019-03-25T08:55:14.713Z,8.81
2019-03-25T08:56:14.756Z,8.94
2019-03-25T08:57:14.649Z,8.96
2019-03-25T08:58:14.580Z,8.79
2019-03-25T08:59:14.857Z,8.70
2019-03-25T09:00:14.499Z,8.66
2019-03-25T09:01:14.463Z,8.65
2019-03-25T09:02:14.448Z,8.62
2019-03-25T09:03:14.373Z,8.53
2019-03-25T09:04:14.376Z,8.45
2019-03-25T09:05:14.292Z,8.48
2019-03-25T09:06:14.245Z,8.62
2019-03-25T09:07:14.201Z,8.91
2019-03-25T09:08:14.164Z,9.11
2019-03-25T09:09:14.143Z,9.13
2019-03-25T09:10:14.099Z,9.23
2019-03-25T09:11:14.031Z,9.50
2019-03-25T09:12:14.004Z,9.79
2019-03-25T09:13:13.947Z,10.08
2019-03-25T09:14:13.912Z,10.20
2019-03-25T09:15:13.903Z,10.12
2019-03-25T09:16:13.853Z,10.25
2019-03-25T09:17:13.786Z,10.25
2019-03-25T09:18:13.737Z,10.27
2019-03-25T09:19:13.711Z,10.14
2019-03-25T09:20:13.663Z,10.08
2019-03-25T09:21:13.630Z,10.22
2019-03-25T09:22:13.587Z,10.14
2019-03-25T09:23:13.552Z,10.22
2019-03-25T09:24:13.491Z,10.36
2019-03-25T09:25:13.446Z,10.45
2019-03-25T09:26:14.189Z,10.60
2019-03-25T09:27:13.375Z,10.45
2019-03-25T09:28:23.686Z,10.36
2019-03-25T09:29:13.285Z,10.61
2019-03-25T09:30:13.242Z,10.97
2019-03-25T09:31:13.236Z,11.29
2019-03-25T09:32:13.164Z,11.19
2019-03-25T09:33:13.113Z,10.79
2019-03-25T09:34:13.086Z,10.36
2019-03-25T09:35:13.042Z,10.41
2019-03-25T09:36:13.006Z,10.64
2019-03-25T09:37:13.076Z,10.76
2019-03-25T09:38:12.943Z,10.85
2019-03-25T09:39:12.875Z,11.29
2019-03-25T09:40:12.846Z,12.14
2019-03-25T09:41:12.806Z,12.72
2019-03-25T09:42:12.778Z,12.86
2019-03-25T09:43:12.718Z,12.93
2019-03-25T09:44:12.671Z,12.23
2019-03-25T09:45:12.639Z,11.73
2019-03-25T09:46:12.622Z,11.79
2019-03-25T09:47:12.563Z,11.69
2019-03-25T09:48:12.533Z,11.70
2019-03-25T09:49:12.494Z,11.90
2019-03-25T09:50:12.446Z,11.86
2019-03-25T09:51:12.426Z,11.39
2019-03-25T09:52:12.362Z,10.92
2019-03-25T09:53:12.323Z,10.71
2019-03-25T09:54:12.291Z,10.59
2019-03-25T09:55:12.252Z,10.42
2019-03-25T09:56:12.234Z,10.18
2019-03-25T09:57:12.193Z,10.09
2019-03-25T09:58:12.135Z,9.94
2019-03-25T09:59:12.094Z,9.84
2019-03-25T10:00:12.057Z,9.83
2019-03-25T10:01:12.073Z,9.78
2019-03-25T10:02:11.972Z,9.75
2019-03-25T10:03:11.928Z,9.81
2019-03-25T10:04:11.909Z,10.67
2019-03-25T10:05:11.848Z,11.72
2019-03-25T10:06:11.825Z,11.98
2019-03-25T10:07:11.814Z,12.01
2019-03-25T10:08:11.892Z,11.99
2019-03-25T10:09:11.696Z,12.24
2019-03-25T10:10:11.677Z,12.27
2019-03-25T10:11:11.614Z,12.46
2019-03-25T10:12:11.604Z,12.54
2019-03-25T10:13:11.555Z,12.77
2019-03-25T10:14:11.517Z,13.17
2019-03-25T10:15:11.457Z,13.30
2019-03-25T10:16:11.413Z,13.14
2019-03-25T10:17:11.381Z,12.86
2019-03-25T10:18:11.343Z,12.65
2019-03-25T10:19:11.308Z,12.56
2019-03-25T10:20:11.301Z,12.24
2019-03-25T10:21:11.230Z,11.95
2019-03-25T10:22:11.187Z,11.69
2019-03-25T10:23:11.143Z,11.21
2019-03-25T10:24:11.121Z,10.85
2019-03-25T10:25:11.093Z,10.23
2019-03-25T10:26:11.049Z,9.58
2019-03-25T10:27:11.005Z,9.14
2019-03-25T10:28:10.951Z,8.89
2019-03-25T10:29:10.930Z,8.91
2019-03-25T10:30:10.877Z,9.53
2019-03-25T10:31:10.869Z,10.14
2019-03-25T10:32:10.807Z,10.64
2019-03-25T10:33:10.795Z,10.85
2019-03-25T10:34:10.713Z,11.19
2019-03-25T10:35:10.704Z,11.39
2019-03-25T10:36:10.652Z,11.57
2019-03-25T10:37:10.594Z,11.72
2019-03-25T10:38:19.099Z,11.90
2019-03-25T10:39:10.548Z,11.90
2019-03-25T10:40:10.484Z,12.14
2019-03-25T10:41:10.443Z,12.10
2019-03-25T10:42:10.483Z,12.04
2019-03-25T10:43:10.360Z,12.14
2019-03-25T10:44:10.352Z,12.29
2019-03-25T10:45:10.322Z,12.59
2019-03-25T10:46:10.251Z,12.53
2019-03-25T10:47:10.207Z,12.31
2019-03-25T10:48:10.179Z,12.52
2019-03-25T10:49:10.143Z,12.87
2019-03-25T10:50:10.133Z,13.23
2019-03-25T10:51:10.072Z,13.46
2019-03-25T10:52:10.032Z,13.33
2019-03-25T10:53:10.053Z,13.10
2019-03-25T10:54:09.951Z,13.07
2019-03-25T10:55:09.927Z,13.30
2019-03-25T10:56:09.910Z,13.45
2019-03-25T10:57:09.844Z,13.30
2019-03-25T10:58:09.812Z,13.14
2019-03-25T10:59:09.783Z,13.25
2019-03-25T11:00:09.738Z,13.08
2019-03-25T11:01:09.726Z,13.44
2019-03-25T11:02:09.700Z,13.70
2019-03-25T11:03:09.643Z,13.57
2019-03-25T11:04:09.604Z,13.78
2019-03-25T11:05:09.597Z,14.06
2019-03-25T11:06:09.610Z,13.67
2019-03-25T11:07:09.591Z,14.02
2019-03-25T11:08:09.461Z,13.97
2019-03-25T11:09:09.416Z,13.95
2019-03-25T11:10:09.398Z,14.60
2019-03-25T11:11:09.372Z,14.07
2019-03-25T11:12:09.323Z,13.99
2019-03-25T11:13:09.312Z,13.78
2019-03-25T11:14:09.259Z,13.17
2019-03-25T11:15:09.215Z,12.85
2019-03-25T11:16:10.397Z,12.62
2019-03-25T11:17:09.151Z,12.19
2019-03-25T11:18:09.110Z,12.13
2019-03-25T11:19:09.068Z,12.01
2019-03-25T11:20:09.043Z,11.82
2019-03-25T11:21:09.000Z,11.70
2019-03-25T11:22:08.994Z,11.72
2019-03-25T11:23:08.933Z,11.61
2019-03-25T11:24:08.902Z,11.82
2019-03-25T11:25:08.862Z,12.07
2019-03-25T11:26:08.816Z,12.02
2019-03-25T11:27:08.803Z,11.82
2019-03-25T11:28:08.743Z,11.60
2019-03-25T11:29:08.973Z,11.32
2019-03-25T11:30:08.672Z,11.03
2019-03-25T11:31:08.640Z,10.89
2019-03-25T11:32:08.629Z,10.79
2019-03-25T11:33:08.558Z,10.67
2019-03-25T11:34:08.518Z,10.32
2019-03-25T11:35:08.506Z,10.20
2019-03-25T11:36:08.446Z,10.12
2019-03-25T11:37:08.415Z,9.90
2019-03-25T11:38:08.399Z,9.50
2019-03-25T11:39:08.476Z,9.38
2019-03-25T11:40:08.455Z,9.69
2019-03-25T11:41:08.239Z,9.99
2019-03-25T11:42:10.228Z,10.42
2019-03-25T11:43:08.324Z,10.30
2019-03-25T11:44:08.154Z,10.53
2019-03-25T11:45:08.083Z,10.74
2019-03-25T11:46:08.043Z,10.86
2019-03-25T11:47:07.998Z,11.10
2019-03-25T11:48:07.965Z,11.42
2019-03-25T11:49:07.937Z,11.70
2019-03-25T11:50:07.904Z,11.86
2019-03-25T11:51:07.846Z,11.86
2019-03-25T11:52:07.807Z,11.98
2019-03-25T11:53:07.811Z,12.20
2019-03-25T11:54:07.739Z,12.47
2019-03-25T11:55:07.725Z,12.24
2019-03-25T11:56:07.696Z,12.52
2019-03-25T11:57:07.635Z,12.42
2019-03-25T11:58:07.579Z,12.23
2019-03-25T11:59:07.565Z,12.23
2019-03-25T12:00:07.505Z,12.28
2019-03-25T12:01:07.471Z,12.32
2019-03-25T12:02:17.095Z,12.27
2019-03-25T12:03:07.401Z,12.53
2019-03-25T12:04:07.383Z,12.85
2019-03-25T12:05:07.329Z,12.83
2019-03-25T12:06:07.319Z,12.77
2019-03-25T12:07:07.276Z,12.60
2019-03-25T12:08:07.220Z,12.32
2019-03-25T12:09:07.184Z,12.07
2019-03-25T12:10:07.146Z,11.65
2019-03-25T12:11:07.119Z,11.47
2019-03-25T12:12:07.103Z,11.39
2019-03-25T12:13:07.051Z,11.42
2019-03-25T12:14:07.003Z,11.29
2019-03-25T12:15:06.965Z,11.44
2019-03-25T12:16:06.931Z,11.47
2019-03-25T12:17:07.032Z,11.54
2019-03-25T12:18:06.850Z,11.32
2019-03-25T12:19:06.810Z,11.22
2019-03-25T12:20:06.785Z,10.85
2019-03-25T12:21:06.742Z,10.73
2019-03-25T12:22:06.748Z,10.81
2019-03-25T12:23:06.658Z,10.73
2019-03-25T12:24:06.672Z,10.61
2019-03-25T12:25:06.611Z,10.63
2019-03-25T12:26:06.585Z,10.42
2019-03-25T12:27:06.510Z,10.29
2019-03-25T12:28:06.492Z,10.12
2019-03-25T12:29:06.434Z,9.86
2019-03-25T12:30:06.406Z,9.65
2019-03-25T12:31:06.437Z,9.60
2019-03-25T12:32:06.304Z,9.38
2019-03-25T12:33:06.324Z,9.23
2019-03-25T12:34:06.248Z,9.28
2019-03-25T12:35:06.291Z,9.11
2019-03-25T12:36:06.153Z,9.18
2019-03-25T12:37:06.102Z,9.18
2019-03-25T12:38:06.079Z,9.28
2019-03-25T12:39:06.066Z,9.23
2019-03-25T12:40:07.879Z,9.23
2019-03-25T12:41:05.947Z,9.35
2019-03-25T12:42:05.898Z,9.31
2019-03-25T12:43:05.863Z,9.39
2019-03-25T12:44:05.824Z,9.33
2019-03-25T12:45:05.803Z,9.33
2019-03-25T12:46:05.740Z,9.50
2019-03-25T12:47:05.710Z,9.47
2019-03-25T12:48:05.661Z,9.72
2019-03-25T12:49:05.621Z,10.01
2019-03-25T12:50:05.596Z,10.32
2019-03-25T12:51:05.534Z,10.53
2019-03-25T12:52:05.495Z,10.66
2019-03-25T12:53:05.451Z,10.76
2019-03-25T12:54:05.405Z,11.03
2019-03-25T12:55:05.367Z,11.24
2019-03-25T12:56:05.349Z,11.21
2019-03-25T12:57:05.289Z,11.28
2019-03-25T12:58:07.429Z,11.14
2019-03-25T12:59:05.216Z,10.84
2019-03-25T13:00:05.197Z,10.71
2019-03-25T13:01:05.132Z,10.67
2019-03-25T13:02:05.088Z,10.60
2019-03-25T13:03:05.056Z,10.63
2019-03-25T13:04:05.012Z,10.68
2019-03-25T13:05:04.993Z,10.74
2019-03-25T13:06:04.941Z,10.84
2019-03-25T13:07:04.902Z,10.71
2019-03-25T13:08:04.864Z,10.88
2019-03-25T13:09:04.814Z,10.92